Time;durP1;ratioP1;P1;durP2;ratioP2;P2;SDS_P1;SDS_P2;PMS_P1;PMS_P2;Temp;Humidity;BMP_temperature;BMP_pressure;BME280_temperature;BME280_humidity;BME280_pressure;Samples;Min_cycle;Max_cycle;Signal;HPM_P1;HPM_P2
2022/06/24 09:22:03;;;;;;;0.50;0.33;;;25.60;87.30;;;;;;5089612;27;20446;-86
2022/06/24 09:24:45;;;;;;;0.70;0.30;;;25.90;85.20;;;;;;5093589;27;20491;-85
2022/06/24 09:27:12;;;;;;;1.20;0.40;;;26.20;85.40;;;;;;5102333;27;20497;-85
2022/06/24 09:29:48;;;;;;;0.40;0.30;;;26.20;82.90;;;;;;5100753;28;20502;-85
2022/06/24 09:32:16;;;;;;;0.60;0.50;;;26.50;84.00;;;;;;5100906;27;20481;-87
2022/06/24 09:35:02;;;;;;;3.90;0.37;;;26.80;84.60;;;;;;5091500;27;20474;-84
2022/06/24 09:37:38;;;;;;;1.80;0.60;;;27.00;85.50;;;;;;5094278;28;21183;-87
2022/06/24 09:40:24;;;;;;;0.80;0.73;;;27.30;80.50;;;;;;5091611;27;21011;-86
2022/06/24 09:42:56;;;;;;;2.53;0.40;;;26.90;78.00;;;;;;5089387;28;20556;-88
2022/06/24 09:45:25;;;;;;;0.60;0.30;;;27.00;78.80;;;;;;5089329;28;20520;-85
2022/06/24 09:47:53;;;;;;;1.07;0.30;;;27.20;76.80;;;;;;5090830;28;20496;-85
2022/06/24 09:50:22;;;;;;;0.40;0.30;;;27.10;74.80;;;;;;5090306;28;20555;-86
2022/06/24 09:52:53;;;;;;;0.47;0.40;;;26.70;74.80;;;;;;5089810;28;20479;-83
2022/06/24 09:55:20;;;;;;;0.40;0.30;;;26.80;74.50;;;;;;5091496;27;20478;-83
2022/06/24 09:57:48;;;;;;;0.90;0.30;;;26.60;75.70;;;;;;5089670;28;20826;-83
2022/06/24 10:03:04;;;;;;;0.60;0.30;;;26.90;75.90;;;;;;5093266;27;20462;-84
2022/06/24 10:05:35;;;;;;;1.00;0.30;;;27.10;76.00;;;;;;5094504;28;20471;-84
2022/06/24 10:08:06;;;;;;;0.50;0.40;;;26.90;75.20;;;;;;5092732;27;20571;-87
2022/06/24 10:10:35;;;;;;;1.37;0.40;;;26.60;73.90;;;;;;5097601;27;21168;-85
2022/06/24 10:13:08;;;;;;;0.50;0.30;;;26.60;73.80;;;;;;5096953;28;21018;-85
2022/06/24 10:15:35;;;;;;;0.50;0.30;;;26.50;76.90;;;;;;5098834;28;20817;-86
2022/06/24 10:18:09;;;;;;;0.93;0.30;;;27.10;76.40;;;;;;5094793;28;20462;-85
2022/06/24 10:20:38;;;;;;;0.60;0.30;;;27.10;73.40;;;;;;5096149;28;20474;-86
2022/06/24 10:23:06;;;;;;;0.50;0.30;;;26.80;74.50;;;;;;5102142;27;20466;-84
2022/06/24 10:25:53;;;;;;;0.70;0.40;;;26.60;76.40;;;;;;5098937;27;20527;-85
2022/06/24 10:28:19;;;;;;;1.90;0.30;;;26.70;77.60;;;;;;5104352;27;20824;-85
2022/06/24 10:30:58;;;;;;;0.50;0.40;;;26.90;76.60;;;;;;5109792;28;20462;-85
2022/06/24 10:33:28;;;;;;;0.50;0.37;;;27.20;76.60;;;;;;5109421;28;20513;-85
2022/06/24 10:35:56;;;;;;;1.33;0.40;;;27.20;74.10;;;;;;5107396;28;20462;-85
2022/06/24 10:38:26;;;;;;;0.50;0.30;;;27.20;73.00;;;;;;5105056;28;20490;-85
2022/06/24 10:40:53;;;;;;;0.50;0.30;;;27.10;74.20;;;;;;5097737;28;20549;-86
2022/06/24 10:43:37;;;;;;;2.93;0.37;;;27.00;74.20;;;;;;5101474;28;20519;-85
2022/06/24 10:46:24;;;;;;;0.90;0.30;;;27.40;71.70;;;;;;5103212;28;20485;-85
2022/06/24 10:49:04;;;;;;;2.40;0.40;;;27.70;72.60;;;;;;5087187;28;20489;-86
2022/06/24 10:51:34;;;;;;;0.63;0.30;;;28.10;71.90;;;;;;5093599;28;20473;-85
2022/06/24 10:54:15;;;;;;;1.43;0.40;;;28.00;70.40;;;;;;5101421;28;20491;-86
2022/06/24 10:56:47;;;;;;;0.40;0.30;;;28.60;71.50;;;;;;5100204;28;20458;-87
2022/06/24 10:59:16;;;;;;;0.50;0.30;;;28.20;70.10;;;;;;5096457;28;20466;-85
2022/06/24 11:01:45;;;;;;;1.37;0.40;;;28.20;67.30;;;;;;5102107;28;20475;-86
2022/06/24 11:04:17;;;;;;;1.27;0.40;;;28.50;67.80;;;;;;5101671;28;20511;-85
2022/06/24 11:07:08;;;;;;;0.50;0.40;;;28.40;63.30;;;;;;5101848;28;20921;-85
2022/06/24 11:09:37;;;;;;;1.80;0.30;;;28.40;64.90;;;;;;5098176;28;20457;-85
2022/06/24 11:12:05;;;;;;;2.10;0.40;;;28.10;66.20;;;;;;5093174;28;20495;-87
2022/06/24 11:14:32;;;;;;;0.90;0.40;;;28.00;69.20;;;;;;5096912;28;20582;-84
2022/06/24 11:17:08;;;;;;;0.80;0.30;;;28.40;65.70;;;;;;5097801;28;21270;-85
2022/06/24 11:19:40;;;;;;;0.50;0.30;;;28.70;68.10;;;;;;5094340;28;21011;-86
2022/06/24 11:22:07;;;;;;;1.23;0.40;;;29.10;65.60;;;;;;5091771;28;20872;-87
2022/06/24 11:24:37;;;;;;;1.00;0.30;;;29.10;62.30;;;;;;5087965;28;20497;-85
2022/06/24 11:27:06;;;;;;;0.97;0.40;;;28.60;61.60;;;;;;5095963;28;20462;-87
2022/06/24 11:29:52;;;;;;;0.50;0.30;;;28.30;64.30;;;;;;5088278;28;20539;-85
2022/06/24 11:32:19;;;;;;;0.50;0.33;;;27.90;69.70;;;;;;5101129;28;20514;-85
2022/06/24 11:34:48;;;;;;;4.20;0.30;;;27.80;67.80;;;;;;5090234;28;20543;-85
2022/06/24 11:37:18;;;;;;;0.80;0.37;;;28.10;65.00;;;;;;5096900;28;20545;-85
2022/06/24 11:39:47;;;;;;;1.37;0.47;;;28.40;65.40;;;;;;5094105;28;20484;-86
2022/06/24 11:42:16;;;;;;;0.53;0.30;;;28.50;62.20;;;;;;5087223;28;20464;-85
2022/06/24 11:44:43;;;;;;;0.50;0.50;;;28.40;66.40;;;;;;5093995;28;20461;-85
2022/06/24 11:47:10;;;;;;;1.23;0.40;;;28.30;62.00;;;;;;5101046;28;21028;-86
2022/06/24 11:49:42;;;;;;;0.80;0.40;;;28.30;61.80;;;;;;5105275;28;20545;-85
2022/06/24 11:52:09;;;;;;;0.50;0.40;;;28.40;61.90;;;;;;5106815;28;21034;-86
2022/06/24 11:54:37;;;;;;;3.73;0.77;;;28.70;59.60;;;;;;5106371;28;20995;-86
2022/06/24 11:57:09;;;;;;;0.40;0.30;;;28.80;61.10;;;;;;5107241;28;20478;-85
2022/06/24 11:59:37;;;;;;;0.50;0.30;;;28.80;66.30;;;;;;5103887;28;20465;-84
2022/06/24 12:02:05;;;;;;;0.80;0.40;;;28.60;62.10;;;;;;5104494;28;20449;-85
2022/06/24 12:04:33;;;;;;;1.73;0.40;;;28.30;60.80;;;;;;5106814;28;20577;-85
2022/06/24 12:07:02;;;;;;;0.40;0.30;;;28.80;60.90;;;;;;5107969;28;20499;-85
2022/06/24 12:09:30;;;;;;;0.60;0.30;;;29.20;63.20;;;;;;5105959;28;20450;-85
2022/06/24 12:12:11;;;;;;;0.87;0.30;;;29.20;58.50;;;;;;5107248;28;20442;-85
2022/06/24 12:14:39;;;;;;;0.60;0.40;;;28.70;60.20;;;;;;5100891;28;20478;-85
2022/06/24 12:17:08;;;;;;;0.50;0.30;;;28.40;59.40;;;;;;5102255;28;20775;-85
2022/06/24 12:19:37;;;;;;;0.40;0.30;;;28.30;61.60;;;;;;5102175;28;21279;-87
2022/06/24 12:22:10;;;;;;;1.80;0.40;;;28.50;62.60;;;;;;5106116;28;20454;-85
2022/06/24 12:24:38;;;;;;;3.93;0.40;;;28.90;60.80;;;;;;5105627;28;20560;-85
2022/06/24 12:27:07;;;;;;;0.50;0.30;;;28.80;64.10;;;;;;5106068;28;20446;-86
2022/06/24 12:29:37;;;;;;;0.50;0.30;;;28.50;61.30;;;;;;5095524;28;20517;-86
2022/06/24 12:32:06;;;;;;;3.87;0.90;;;28.80;59.90;;;;;;5107120;28;20554;-86
2022/06/24 12:34:35;;;;;;;0.70;0.30;;;28.70;58.60;;;;;;5106075;28;20856;-85
2022/06/24 12:37:04;;;;;;;0.50;0.33;;;28.80;59.60;;;;;;5096214;27;20536;-85
2022/06/24 12:39:33;;;;;;;0.70;0.40;;;28.60;59.20;;;;;;5096661;28;20518;-87
2022/06/24 12:42:00;;;;;;;0.70;0.40;;;29.00;57.10;;;;;;5101753;28;20470;-85
2022/06/24 12:44:40;;;;;;;1.37;0.40;;;28.90;61.40;;;;;;5096337;27;20519;-86
2022/06/24 12:52:43;;;;;;;0.50;0.40;;;28.60;62.30;;;;;;5099121;28;20556;-83
2022/06/24 12:55:12;;;;;;;2.40;0.60;;;28.00;63.80;;;;;;5102379;27;20485;-83
2022/06/24 12:57:40;;;;;;;1.37;0.40;;;28.20;62.50;;;;;;5097928;28;20473;-83
2022/06/24 13:00:09;;;;;;;0.50;0.40;;;28.50;60.20;;;;;;5106159;28;20503;-83
2022/06/24 13:02:41;;;;;;;1.57;0.43;;;29.00;60.30;;;;;;5102373;28;20472;-83
2022/06/24 13:05:09;;;;;;;1.47;0.50;;;29.10;60.70;;;;;;5091820;28;21088;-84
2022/06/24 13:07:37;;;;;;;0.60;0.30;;;29.40;63.00;;;;;;5104205;28;20458;-85
2022/06/24 13:10:05;;;;;;;2.60;0.60;;;29.40;62.10;;;;;;5105038;28;20465;-83
2022/06/24 13:12:33;;;;;;;1.63;0.43;;;30.00;60.70;;;;;;5099942;28;20477;-84
2022/06/24 13:15:02;;;;;;;0.80;0.30;;;30.50;60.30;;;;;;5093143;27;20486;-84
2022/06/24 13:17:29;;;;;;;1.00;0.43;;;30.80;58.10;;;;;;5108222;27;20454;-86
2022/06/24 13:19:57;;;;;;;2.10;0.40;;;30.90;56.70;;;;;;5097568;28;20579;-85
2022/06/24 13:22:24;;;;;;;0.50;0.40;;;31.00;61.10;;;;;;5108260;27;20493;-85
2022/06/24 13:24:51;;;;;;;2.10;0.40;;;30.60;58.50;;;;;;5112014;27;22436;-85
2022/06/24 13:27:18;;;;;;;0.73;0.40;;;30.70;57.00;;;;;;5100885;28;20463;-86
2022/06/24 13:29:46;;;;;;;1.17;0.40;;;30.60;58.20;;;;;;5104503;27;20446;-84
2022/06/24 13:32:13;;;;;;;0.93;0.60;;;30.30;60.50;;;;;;5100856;28;20503;-85
2022/06/24 13:34:40;;;;;;;0.87;0.50;;;29.60;60.90;;;;;;5096959;28;20491;-86
2022/06/24 13:37:08;;;;;;;1.63;0.60;;;29.10;64.40;;;;;;5102383;27;20462;-85
2022/06/24 13:39:35;;;;;;;0.50;0.47;;;28.70;66.60;;;;;;5095626;28;20470;-85
2022/06/24 13:42:04;;;;;;;1.63;0.40;;;28.20;65.30;;;;;;5102500;28;20507;-85
2022/06/24 13:44:31;;;;;;;3.13;0.60;;;28.40;67.60;;;;;;5095632;28;20565;-86
2022/06/24 13:46:58;;;;;;;2.10;0.40;;;28.60;67.50;;;;;;5092639;28;20516;-85
2022/06/24 13:49:25;;;;;;;0.60;0.50;;;28.90;66.20;;;;;;5103082;27;20527;-85
2022/06/24 13:51:52;;;;;;;0.90;0.50;;;29.20;66.20;;;;;;5097000;28;20474;-86
2022/06/24 13:54:20;;;;;;;2.73;0.60;;;29.30;62.90;;;;;;5098793;27;20564;-85
2022/06/24 13:56:47;;;;;;;0.60;0.40;;;29.40;65.50;;;;;;5099515;28;20462;-84
2022/06/24 13:59:14;;;;;;;1.77;0.60;;;29.60;62.40;;;;;;5098991;27;20481;-85
2022/06/24 14:01:42;;;;;;;1.13;0.83;;;29.50;64.60;;;;;;5101231;28;20462;-86
2022/06/24 14:04:09;;;;;;;0.80;0.60;;;29.80;64.50;;;;;;5101072;27;21007;-85
2022/06/24 14:06:36;;;;;;;2.60;0.60;;;29.90;61.60;;;;;;5098720;27;21144;-85
2022/06/24 14:09:05;;;;;;;0.80;0.40;;;29.90;62.00;;;;;;5097325;28;20524;-85
2022/06/24 14:11:33;;;;;;;0.73;0.50;;;29.60;62.10;;;;;;5097257;27;20469;-86
2022/06/24 14:14:00;;;;;;;1.43;0.40;;;29.50;64.80;;;;;;5097365;28;20522;-85
2022/06/24 14:16:27;;;;;;;2.00;0.80;;;29.20;64.40;;;;;;5100362;28;20499;-85
2022/06/24 14:18:54;;;;;;;1.60;0.40;;;29.00;65.30;;;;;;5097613;28;21055;-86
2022/06/24 14:21:21;;;;;;;3.37;0.50;;;28.80;70.40;;;;;;5085536;28;20484;-86
2022/06/24 14:26:33;;;;;;;3.60;1.33;;;28.00;72.40;;;;;;5102602;28;20452;-85
2022/06/24 14:29:01;;;;;;;0.93;0.90;;;28.20;75.60;;;;;;5096345;28;20459;-85
2022/06/24 14:31:27;;;;;;;1.33;1.00;;;28.60;73.70;;;;;;5097566;28;20530;-85
2022/06/24 14:33:54;;;;;;;1.37;0.80;;;28.90;72.30;;;;;;5098128;28;20569;-87
2022/06/24 14:36:21;;;;;;;0.87;0.80;;;29.20;71.00;;;;;;5100940;28;20960;-85
2022/06/24 14:41:39;;;;;;;3.33;1.47;;;29.70;72.30;;;;;;5032531;28;20453;-86
2022/06/24 14:44:06;;;;;;;8.73;1.83;;;29.70;71.30;;;;;;5100680;28;20446;-86
2022/06/24 14:46:33;;;;;;;1.07;1.07;;;29.40;71.70;;;;;;5101339;28;20494;-85
2022/06/24 14:49:00;;;;;;;0.90;0.90;;;29.40;71.60;;;;;;5090824;28;20498;-85
2022/06/24 14:51:27;;;;;;;4.93;1.40;;;29.50;71.30;;;;;;5089074;28;20549;-84
2022/06/24 14:53:55;;;;;;;1.43;1.17;;;29.70;69.60;;;;;;5087001;28;20538;-86
2022/06/24 14:56:22;;;;;;;3.37;1.47;;;30.10;72.70;;;;;;5092435;28;20552;-86
2022/06/24 14:58:50;;;;;;;3.03;1.57;;;30.10;69.20;;;;;;5091955;28;20466;-85
2022/06/24 15:01:17;;;;;;;2.30;0.90;;;30.10;71.30;;;;;;5088023;28;20540;-85
2022/06/24 15:03:45;;;;;;;2.80;1.40;;;30.10;70.50;;;;;;5094010;28;21040;-85
2022/06/24 15:06:12;;;;;;;0.93;0.93;;;29.90;70.90;;;;;;5092078;28;20462;-85
2022/06/24 15:08:39;;;;;;;1.23;1.23;;;29.90;69.70;;;;;;5092848;28;20461;-85
2022/06/24 15:11:06;;;;;;;1.00;1.00;;;30.20;70.90;;;;;;5092579;28;20596;-86
2022/06/24 15:13:33;;;;;;;1.63;1.53;;;30.20;70.20;;;;;;5093751;28;20939;-85
2022/06/24 15:16:02;;;;;;;1.53;1.43;;;30.40;70.10;;;;;;5090178;28;20519;-86
2022/06/24 15:18:29;;;;;;;2.63;2.43;;;30.20;67.80;;;;;;5092100;28;20536;-85
2022/06/24 15:20:56;;;;;;;1.20;1.10;;;30.10;68.90;;;;;;5088588;28;20572;-86
2022/06/24 15:23:23;;;;;;;3.20;1.30;;;30.10;69.30;;;;;;5100448;27;20539;-86
2022/06/24 15:25:50;;;;;;;1.17;1.07;;;29.90;70.90;;;;;;5097793;27;21056;-86
2022/06/24 15:28:17;;;;;;;2.03;1.80;;;29.40;71.20;;;;;;5091491;27;20474;-85
2022/06/24 15:30:44;;;;;;;1.20;1.10;;;29.00;71.70;;;;;;5100558;27;21376;-86
2022/06/24 15:33:12;;;;;;;1.20;1.10;;;29.30;72.90;;;;;;5095802;27;20523;-86
2022/06/24 15:35:39;;;;;;;3.47;1.53;;;29.70;70.40;;;;;;5094020;27;20564;-86
2022/06/24 15:38:07;;;;;;;1.00;0.90;;;29.40;73.10;;;;;;5097100;27;20537;-84
2022/06/24 15:40:34;;;;;;;1.20;1.20;;;29.00;73.80;;;;;;5097340;27;20498;-86
2022/06/24 15:43:01;;;;;;;2.20;2.00;;;28.70;74.90;;;;;;5095843;27;20546;-85
2022/06/24 15:45:28;;;;;;;1.20;1.10;;;28.70;74.10;;;;;;5101744;27;20498;-86
2022/06/24 15:47:57;;;;;;;1.33;0.87;;;28.90;74.80;;;;;;5100109;28;20511;-87
2022/06/24 15:50:25;;;;;;;1.90;1.70;;;28.80;75.20;;;;;;5105294;27;20458;-85
2022/06/24 15:52:53;;;;;;;2.23;1.80;;;28.50;75.10;;;;;;5099950;27;20491;-85
2022/06/24 15:55:20;;;;;;;2.00;1.37;;;28.30;75.20;;;;;;5096562;28;20478;-85
2022/06/24 15:57:47;;;;;;;1.03;1.03;;;28.20;76.80;;;;;;5094050;27;21034;-85
2022/06/24 16:00:14;;;;;;;3.57;1.57;;;28.10;77.20;;;;;;5098541;27;20494;-85
2022/06/24 16:02:41;;;;;;;1.83;1.30;;;28.00;78.50;;;;;;5095017;28;20454;-85
2022/06/24 16:05:09;;;;;;;2.20;1.47;;;28.00;79.50;;;;;;5098185;28;20544;-85
2022/06/24 16:07:39;;;;;;;1.60;1.50;;;28.00;80.20;;;;;;5098872;28;20660;-85
2022/06/24 16:10:07;;;;;;;3.23;1.50;;;27.90;83.20;;;;;;5104295;28;20484;-85
2022/06/24 16:12:35;;;;;;;1.37;1.27;;;27.90;81.60;;;;;;5107169;27;20490;-85
2022/06/24 16:15:04;;;;;;;1.63;1.47;;;28.10;79.90;;;;;;5112573;27;20486;-85
2022/06/24 16:17:31;;;;;;;0.90;0.90;;;28.00;80.40;;;;;;5105608;28;20525;-86
2022/06/24 16:19:58;;;;;;;1.57;1.47;;;28.00;82.90;;;;;;5110096;28;20999;-86
2022/06/24 16:22:26;;;;;;;1.60;1.50;;;27.90;81.60;;;;;;5101269;28;20946;-86
2022/06/24 16:30:24;;;;;;;3.90;1.47;;;27.20;87.00;;;;;;5099982;28;20551;-86
2022/06/24 16:32:51;;;;;;;1.33;1.23;;;27.40;86.40;;;;;;5108091;27;20503;-87
2022/06/24 16:35:18;;;;;;;1.53;1.43;;;27.40;85.90;;;;;;5105078;28;20513;-87
2022/06/24 16:37:45;;;;;;;1.50;1.40;;;27.30;85.60;;;;;;5103946;27;20528;-86
2022/06/24 16:40:14;;;;;;;1.50;1.40;;;27.20;87.20;;;;;;5103462;27;20553;-85
2022/06/24 16:43:15;;;;;;;2.37;1.67;;;27.20;85.90;;;;;;5103327;27;21030;-85
2022/06/24 16:45:30;;;;;;;1.50;1.40;;;27.00;90.20;;;;;;5103510;28;20446;-85
2022/06/24 16:47:57;;;;;;;1.23;1.13;;;27.00;85.50;;;;;;5104836;28;20466;-87
2022/06/24 16:50:24;;;;;;;1.67;1.50;;;26.90;88.80;;;;;;5102398;27;20541;-85
2022/06/24 16:52:51;;;;;;;2.87;2.67;;;26.60;90.90;;;;;;5096443;28;20518;-84
2022/06/24 16:55:19;;;;;;;1.60;1.50;;;26.60;91.40;;;;;;5098444;28;20547;-85
2022/06/24 16:57:47;;;;;;;2.40;1.43;;;26.50;91.70;;;;;;5101336;28;20531;-86
2022/06/24 17:00:14;;;;;;;1.50;1.40;;;26.20;92.90;;;;;;5104715;28;20442;-85
2022/06/24 17:02:41;;;;;;;2.13;1.73;;;26.10;93.60;;;;;;5102712;28;20494;-85
2022/06/24 17:05:09;;;;;;;1.43;1.33;;;25.90;93.60;;;;;;5104959;28;20489;-85
2022/06/24 17:07:36;;;;;;;2.00;1.90;;;25.90;94.30;;;;;;5106054;28;20445;-85
2022/06/24 17:10:03;;;;;;;1.63;1.53;;;25.70;94.30;;;;;;5102576;27;20458;-85
2022/06/24 17:12:32;;;;;;;4.10;1.57;;;25.70;94.60;;;;;;5103722;28;20560;-86
2022/06/24 17:14:59;;;;;;;1.50;1.23;;;25.50;95.40;;;;;;5096914;28;20486;-84
2022/06/24 17:17:26;;;;;;;3.73;1.43;;;25.40;95.70;;;;;;5104886;28;20446;-84
2022/06/24 17:19:53;;;;;;;1.50;1.27;;;25.40;95.90;;;;;;5093403;28;20532;-85
2022/06/24 17:22:20;;;;;;;1.20;1.10;;;25.20;96.90;;;;;;5099568;28;20455;-84
2022/06/24 17:24:49;;;;;;;1.93;1.70;;;25.10;97.90;;;;;;5097314;28;20463;-86
2022/06/24 17:27:16;;;;;;;1.73;1.63;;;24.90;97.70;;;;;;5104252;27;20492;-83
2022/06/24 17:29:44;;;;;;;1.00;0.90;;;24.70;98.10;;;;;;5092263;28;20464;-84
2022/06/24 17:32:11;;;;;;;1.97;1.23;;;24.40;98.80;;;;;;5097359;28;20554;-84
2022/06/24 17:34:39;;;;;;;1.20;1.10;;;24.00;99.90;;;;;;5101105;28;20941;-86
2022/06/24 17:37:06;;;;;;;1.13;1.03;;;23.70;99.90;;;;;;5104199;27;20446;-84
2022/06/24 17:39:34;;;;;;;2.47;1.20;;;23.50;99.90;;;;;;5095756;28;21265;-84
2022/06/24 17:42:01;;;;;;;1.07;0.60;;;23.50;99.90;;;;;;5093587;28;20505;-83
2022/06/24 17:44:28;;;;;;;1.20;0.60;;;22.70;94.70;;;;;;5104144;28;20512;-84
2022/06/24 17:46:56;;;;;;;1.67;0.80;;;22.40;94.40;;;;;;5105341;28;20446;-84
2022/06/24 17:49:23;;;;;;;0.80;0.50;;;22.10;94.20;;;;;;5096327;27;20487;-85
2022/06/24 17:51:50;;;;;;;1.00;0.60;;;22.00;94.20;;;;;;5100615;28;20485;-85
2022/06/24 17:54:17;;;;;;;0.60;0.50;;;21.80;94.50;;;;;;5101549;27;20511;-85
2022/06/24 17:56:44;;;;;;;1.13;0.50;;;21.70;96.70;;;;;;5096937;27;20493;-84
2022/06/24 17:59:11;;;;;;;1.00;0.50;;;21.40;97.00;;;;;;5098704;27;21050;-85
2022/06/24 18:01:38;;;;;;;0.70;0.50;;;21.30;98.00;;;;;;5098939;28;20495;-86
2022/06/24 18:04:06;;;;;;;1.00;0.50;;;21.00;98.20;;;;;;5101062;27;20469;-85
2022/06/24 18:06:33;;;;;;;0.90;0.50;;;20.70;98.60;;;;;;5100464;28;20569;-85
2022/06/24 18:09:00;;;;;;;0.90;0.70;;;20.30;99.90;;;;;;5101018;28;20464;-83
2022/06/24 18:11:28;;;;;;;0.50;0.40;;;20.00;99.90;;;;;;5098455;28;20454;-83
2022/06/24 18:13:54;;;;;;;0.63;0.50;;;19.70;99.90;;;;;;5102124;28;20460;-84
2022/06/24 18:16:21;;;;;;;1.43;1.43;;;19.50;99.90;;;;;;5100099;28;20598;-84
2022/06/24 18:18:48;;;;;;;0.50;0.50;;;19.50;99.90;;;;;;5102220;28;20455;-84
2022/06/24 18:21:17;;;;;;;0.60;0.30;;;19.40;99.90;;;;;;5102983;27;21163;-85
2022/06/24 18:23:44;;;;;;;0.40;0.40;;;19.40;99.90;;;;;;5098185;28;20568;-84
2022/06/24 18:26:11;;;;;;;0.60;0.50;;;19.40;99.90;;;;;;5102728;28;20443;-84
2022/06/24 18:28:38;;;;;;;0.50;0.40;;;19.30;99.90;;;;;;5103875;28;20455;-83
2022/06/24 18:31:05;;;;;;;1.07;0.47;;;19.20;99.90;;;;;;5104787;27;20954;-84
2022/06/24 18:33:32;;;;;;;5.43;0.40;;;19.30;99.90;;;;;;5104113;28;20936;-86
2022/06/24 18:35:58;;;;;;;1.63;0.60;;;19.20;99.90;;;;;;5103252;27;20562;-84
2022/06/24 18:38:27;;;;;;;0.70;0.50;;;19.20;99.90;;;;;;5104647;28;20478;-85
2022/06/24 18:40:54;;;;;;;0.40;0.30;;;19.20;99.90;;;;;;5102123;27;20555;-85
2022/06/24 18:43:21;;;;;;;0.60;0.53;;;19.20;99.90;;;;;;5097281;28;20470;-85
2022/06/24 18:45:48;;;;;;;0.40;0.30;;;19.20;99.90;;;;;;5095749;28;20470;-84
2022/06/24 18:48:15;;;;;;;0.50;0.50;;;19.20;99.90;;;;;;5103992;28;20456;-86
2022/06/24 18:50:42;;;;;;;0.70;0.40;;;19.30;99.90;;;;;;5100381;28;20884;-83
2022/06/24 18:53:09;;;;;;;1.97;0.33;;;19.30;99.90;;;;;;5095158;28;22214;-84
2022/06/24 18:55:37;;;;;;;0.50;0.43;;;19.40;99.90;;;;;;5101622;28;20500;-84
2022/06/24 18:58:04;;;;;;;0.50;0.40;;;19.30;99.90;;;;;;5107219;28;20441;-83
2022/06/24 19:00:31;;;;;;;0.57;0.43;;;19.40;99.90;;;;;;5100542;28;20449;-84
2022/06/24 19:02:59;;;;;;;6.53;0.50;;;19.40;99.90;;;;;;5101898;28;20449;-85
2022/06/24 19:05:26;;;;;;;0.70;0.47;;;19.60;99.90;;;;;;5106593;28;20464;-84
2022/06/24 19:07:53;;;;;;;1.70;0.40;;;19.50;99.90;;;;;;5113468;28;20445;-86
2022/06/24 19:10:20;;;;;;;0.60;0.50;;;19.50;99.90;;;;;;5109413;28;20944;-85
2022/06/24 19:12:48;;;;;;;0.50;0.50;;;19.50;99.90;;;;;;5111385;27;20491;-85
2022/06/24 19:15:15;;;;;;;0.87;0.60;;;19.40;99.90;;;;;;5107180;27;20932;-85
2022/06/24 19:17:42;;;;;;;1.27;0.30;;;19.50;99.90;;;;;;5103879;27;21078;-84
2022/06/24 19:20:10;;;;;;;0.50;0.47;;;19.50;99.90;;;;;;5103592;27;20539;-84
2022/06/24 19:22:37;;;;;;;0.60;0.43;;;19.50;99.90;;;;;;5109933;27;20620;-86
2022/06/24 19:25:05;;;;;;;1.57;0.53;;;19.50;99.90;;;;;;5103577;27;21005;-87
2022/06/24 19:27:33;;;;;;;0.50;0.40;;;19.50;99.90;;;;;;5099739;27;20468;-85
2022/06/24 19:30:01;;;;;;;0.97;0.47;;;19.50;99.90;;;;;;5100921;28;20471;-84
2022/06/24 19:32:28;;;;;;;0.50;0.40;;;19.50;99.90;;;;;;5101078;28;20465;-84
2022/06/24 19:34:55;;;;;;;0.80;0.50;;;19.40;99.90;;;;;;5107544;27;20480;-84
2022/06/24 19:37:22;;;;;;;1.23;0.60;;;19.30;99.90;;;;;;5102376;28;20560;-84
2022/06/24 19:39:49;;;;;;;0.70;0.40;;;19.40;99.90;;;;;;5104946;28;20465;-84
2022/06/24 19:42:16;;;;;;;1.53;0.50;;;19.30;99.90;;;;;;5105794;28;20974;-84
2022/06/24 19:44:43;;;;;;;0.60;0.40;;;19.40;99.90;;;;;;5109056;27;20555;-84
2022/06/24 19:47:12;;;;;;;0.50;0.50;;;19.50;99.90;;;;;;5104901;28;20458;-84
2022/06/24 19:49:39;;;;;;;0.70;0.40;;;19.40;99.90;;;;;;5100656;27;20469;-85
2022/06/24 19:52:06;;;;;;;0.80;0.60;;;19.50;99.90;;;;;;5105808;27;20538;-85
2022/06/24 19:54:33;;;;;;;0.73;0.43;;;19.50;99.90;;;;;;5100988;28;20464;-86
2022/06/24 19:57:00;;;;;;;0.90;0.47;;;19.50;99.90;;;;;;5105565;27;20481;-84
2022/06/24 19:59:27;;;;;;;1.17;0.43;;;19.40;99.90;;;;;;5104006;27;20554;-85
2022/06/24 20:07:24;;;;;;;0.80;0.57;;;19.30;99.90;;;;;;5101886;28;20532;-85
2022/06/24 20:09:51;;;;;;;0.60;0.40;;;19.30;99.90;;;;;;5106079;28;20437;-86
2022/06/24 20:12:18;;;;;;;0.60;0.53;;;19.30;99.90;;;;;;5105918;28;20531;-85
2022/06/24 20:14:45;;;;;;;1.63;1.53;;;19.30;99.90;;;;;;5104487;28;20471;-84
2022/06/24 20:17:12;;;;;;;1.20;0.60;;;19.20;99.90;;;;;;5104987;28;20485;-84
2022/06/24 20:19:40;;;;;;;1.63;0.50;;;19.20;99.90;;;;;;5102529;28;20481;-85
2022/06/24 20:22:07;;;;;;;0.50;0.40;;;19.20;99.90;;;;;;5104384;28;20488;-85
2022/06/24 20:24:38;;;;;;;0.80;0.80;;;19.10;99.90;;;;;;5101583;28;20468;-84
2022/06/24 20:27:06;;;;;;;0.47;0.37;;;19.00;99.90;;;;;;5102691;28;20483;-85
2022/06/24 20:29:33;;;;;;;0.80;0.70;;;18.90;99.90;;;;;;5098799;28;20463;-84
2022/06/24 20:32:02;;;;;;;0.77;0.57;;;18.90;99.90;;;;;;5100192;28;20479;-86
2022/06/24 20:34:30;;;;;;;0.60;0.53;;;18.90;99.90;;;;;;5105759;28;20470;-85
2022/06/24 20:36:59;;;;;;;0.50;0.50;;;19.00;99.90;;;;;;5103436;28;20478;-89
2022/06/24 20:39:26;;;;;;;0.60;0.50;;;18.90;99.90;;;;;;5101427;28;20468;-85
2022/06/24 20:41:52;;;;;;;0.80;0.70;;;18.90;99.90;;;;;;5102410;28;20473;-85
2022/06/24 20:44:20;;;;;;;2.97;1.03;;;18.80;99.90;;;;;;5100960;28;20476;-87
2022/06/24 20:46:48;;;;;;;0.50;0.50;;;18.70;99.90;;;;;;5099691;27;20466;-86
2022/06/24 20:49:15;;;;;;;0.43;0.30;;;18.60;99.90;;;;;;5105382;28;20446;-85
2022/06/24 20:51:42;;;;;;;1.00;0.70;;;18.60;99.90;;;;;;5100822;28;20493;-86
2022/06/24 20:54:10;;;;;;;2.13;0.70;;;18.50;99.90;;;;;;5104073;27;20477;-85
2022/06/24 20:56:38;;;;;;;0.90;0.50;;;18.40;99.90;;;;;;5105847;28;20514;-85
2022/06/24 20:59:06;;;;;;;0.50;0.50;;;18.40;99.90;;;;;;5105670;28;20461;-88
2022/06/24 21:01:33;;;;;;;5.80;0.70;;;18.30;99.90;;;;;;5106020;28;20503;-85
2022/06/24 21:04:00;;;;;;;0.50;0.50;;;18.20;99.90;;;;;;5105734;28;20469;-87
2022/06/24 21:06:27;;;;;;;3.77;1.70;;;18.20;99.90;;;;;;5102171;28;20963;-85
2022/06/24 21:08:54;;;;;;;0.50;0.50;;;18.10;99.90;;;;;;5106563;28;20443;-84
2022/06/24 21:11:22;;;;;;;1.13;0.40;;;18.10;99.90;;;;;;5102693;28;20518;-85
2022/06/24 21:13:49;;;;;;;0.60;0.60;;;18.10;99.90;;;;;;5105638;28;21192;-84
2022/06/24 21:16:16;;;;;;;1.17;0.60;;;18.00;99.90;;;;;;5104671;28;20485;-87
2022/06/24 21:18:43;;;;;;;0.60;0.40;;;18.00;99.90;;;;;;5103538;28;20447;-86
2022/06/24 21:21:11;;;;;;;0.57;0.40;;;18.00;99.90;;;;;;5107132;27;20958;-85
2022/06/24 21:23:37;;;;;;;0.67;0.50;;;17.90;99.90;;;;;;5105756;27;20506;-88
2022/06/24 21:26:05;;;;;;;0.60;0.50;;;17.90;99.90;;;;;;5111140;27;20441;-85
2022/06/24 21:28:33;;;;;;;0.50;0.40;;;17.90;99.90;;;;;;5105196;27;20462;-87
2022/06/24 21:31:00;;;;;;;0.47;0.40;;;17.90;99.90;;;;;;5102371;28;20482;-85
2022/06/24 21:33:27;;;;;;;6.80;0.87;;;17.90;99.90;;;;;;5103629;28;21203;-84
2022/06/24 21:35:54;;;;;;;0.40;0.40;;;18.00;99.90;;;;;;5100806;27;20454;-89
2022/06/24 21:38:21;;;;;;;3.50;0.60;;;18.00;99.90;;;;;;5101964;28;21037;-85
2022/06/24 21:40:48;;;;;;;0.50;0.40;;;18.00;99.90;;;;;;5102872;28;20458;-85
2022/06/24 21:43:16;;;;;;;0.63;0.50;;;18.00;99.90;;;;;;5098636;28;20807;-85
2022/06/24 21:45:44;;;;;;;0.50;0.40;;;18.00;99.90;;;;;;5098150;28;20994;-87
2022/06/24 21:48:11;;;;;;;1.10;0.50;;;18.00;99.90;;;;;;5101959;28;20519;-85
2022/06/24 21:50:38;;;;;;;0.40;0.40;;;18.00;99.90;;;;;;5104732;28;20632;-85
2022/06/24 21:53:05;;;;;;;2.10;0.40;;;18.00;99.90;;;;;;5103694;28;20466;-88
2022/06/24 21:55:32;;;;;;;0.50;0.40;;;18.00;99.90;;;;;;5102870;28;20466;-85
2022/06/24 21:57:59;;;;;;;1.17;0.77;;;17.90;99.90;;;;;;5102493;28;20571;-83
2022/06/24 22:00:26;;;;;;;2.10;0.30;;;17.90;99.90;;;;;;5109351;27;20489;-87
2022/06/24 22:02:55;;;;;;;0.50;0.50;;;17.90;99.90;;;;;;5110725;27;20504;-85
2022/06/24 22:05:22;;;;;;;2.57;0.40;;;17.90;99.90;;;;;;5109524;28;20470;-83
2022/06/24 22:07:49;;;;;;;1.30;0.67;;;18.00;99.90;;;;;;5109005;28;20494;-83
2022/06/24 22:10:17;;;;;;;0.40;0.40;;;17.90;99.90;;;;;;5098975;28;20515;-84
2022/06/24 22:12:44;;;;;;;0.53;0.50;;;18.00;99.90;;;;;;5097994;28;20659;-84
2022/06/24 22:15:11;;;;;;;0.50;0.47;;;18.00;99.90;;;;;;5096252;28;20472;-85
2022/06/24 22:17:54;;;;;;;0.60;0.40;;;18.00;99.90;;;;;;5103159;28;20481;-85
2022/06/24 22:20:23;;;;;;;2.00;1.90;;;18.00;99.90;;;;;;5102109;28;20493;-88
2022/06/24 22:22:50;;;;;;;2.30;0.60;;;18.00;99.90;;;;;;5101536;28;20924;-87
2022/06/24 22:25:19;;;;;;;0.60;0.60;;;17.90;99.90;;;;;;5097528;28;20516;-86
2022/06/24 22:27:46;;;;;;;0.60;0.50;;;17.70;99.90;;;;;;5099739;28;20556;-86
2022/06/24 22:30:13;;;;;;;0.93;0.40;;;17.70;99.90;;;;;;5095053;28;20450;-88
2022/06/24 22:32:42;;;;;;;0.80;0.80;;;17.70;99.90;;;;;;5104275;28;20587;-86
2022/06/24 22:35:10;;;;;;;0.57;0.50;;;17.50;99.90;;;;;;5094817;28;20466;-85
2022/06/24 22:37:38;;;;;;;0.70;0.60;;;17.50;99.90;;;;;;5101787;28;20549;-87
2022/06/24 22:40:06;;;;;;;0.70;0.40;;;17.30;99.90;;;;;;5103216;28;20542;-88